createdAt,value
2017-04-17T00:00:02.213Z,73218
2017-04-17T00:00:12.317Z,73215
2017-04-17T00:00:22.407Z,73221
2017-04-17T00:00:32.498Z,73219
2017-04-17T00:00:42.583Z,73220
2017-04-17T00:00:52.408Z,73219
2017-04-17T00:01:02.493Z,73224
2017-04-17T00:01:12.580Z,73219
2017-04-17T00:01:22.397Z,73218
2017-04-17T00:01:32.488Z,73222
2017-04-17T00:01:42.574Z,73224
2017-04-17T00:01:52.660Z,73220
2017-04-17T00:02:02.598Z,73220
2017-04-17T00:02:12.403Z,73220
2017-04-17T00:02:22.488Z,73219
2017-04-17T00:02:32.583Z,73219
2017-04-17T00:02:42.678Z,73218
2017-04-17T00:02:52.769Z,73221
2017-04-17T00:03:02.857Z,73219
2017-04-17T00:03:12.673Z,73218
2017-04-17T00:03:22.766Z,73221
2017-04-17T00:03:32.575Z,73220
2017-04-17T00:03:42.388Z,73223
2017-04-17T00:03:52.486Z,73220
2017-04-17T00:04:02.583Z,73221
2017-04-17T00:04:12.677Z,73220
2017-04-17T00:04:22.783Z,73219
2017-04-17T00:04:32.873Z,73217
2017-04-17T00:04:42.680Z,73218
2017-04-17T00:04:52.768Z,73217
2017-04-17T00:05:02.856Z,73216
2017-04-17T00:05:12.657Z,73217
2017-04-17T00:05:22.488Z,73216
2017-04-17T00:05:32.397Z,73220
2017-04-17T00:05:42.194Z,73219
2017-04-17T00:05:52.288Z,73217
2017-04-17T00:06:02.378Z,73220
2017-04-17T00:06:12.469Z,73219
2017-04-17T00:06:22.569Z,73217
2017-04-17T00:06:32.652Z,73216
2017-04-17T00:06:42.737Z,73209
2017-04-17T00:06:52.820Z,73206
2017-04-17T00:07:02.332Z,73204
2017-04-17T00:07:12.424Z,73205
2017-04-17T00:07:22.516Z,73197
2017-04-17T00:07:32.637Z,73191
2017-04-17T00:07:42.730Z,73194
2017-04-17T00:07:52.820Z,73195
2017-04-17T00:08:02.338Z,73196
2017-04-17T00:08:12.427Z,73199
2017-04-17T00:08:22.235Z,73199
2017-04-17T00:08:32.317Z,73198
2017-04-17T00:08:42.551Z,73196
2017-04-17T00:08:52.644Z,73198
2017-04-17T00:09:02.736Z,73205
2017-04-17T00:09:12.824Z,73206
2017-04-17T00:09:22.628Z,73209
2017-04-17T00:09:32.432Z,73208
2017-04-17T00:09:42.517Z,73211
2017-04-17T00:09:52.647Z,73205
2017-04-17T00:10:02.742Z,73209
2017-04-17T00:10:12.546Z,73204
2017-04-17T00:10:22.359Z,73203
2017-04-17T00:10:32.452Z,73205
2017-04-17T00:10:42.541Z,73209
2017-04-17T00:10:52.627Z,73205
2017-04-17T00:11:02.749Z,73204
2017-04-17T00:11:12.837Z,73203
2017-04-17T00:11:22.926Z,73202
2017-04-17T00:11:33.017Z,73205
2017-04-17T00:11:43.100Z,73202
2017-04-17T00:11:53.191Z,73203
2017-04-17T00:12:03.273Z,73204
2017-04-17T00:12:13.121Z,73204
2017-04-17T00:12:22.919Z,73205
2017-04-17T00:12:33.010Z,73207
2017-04-17T00:12:42.536Z,73210
2017-04-17T00:12:52.627Z,73209
2017-04-17T00:13:02.721Z,73210
2017-04-17T00:13:13.035Z,73211
2017-04-17T00:13:23.250Z,73213
2017-04-17T00:13:33.338Z,73203
2017-04-17T00:13:43.429Z,73200
2017-04-17T00:13:53.226Z,73198
2017-04-17T00:14:03.325Z,73191
2017-04-17T00:14:13.129Z,73187
2017-04-17T00:14:23.228Z,73180
2017-04-17T00:14:33.325Z,73184
2017-04-17T00:14:43.418Z,73181
2017-04-17T00:14:53.511Z,73186
2017-04-17T00:15:03.608Z,73184
2017-04-17T00:15:13.419Z,73181
2017-04-17T00:15:23.515Z,73181
2017-04-17T00:15:33.609Z,73184
2017-04-17T00:15:43.717Z,73180
2017-04-17T00:15:53.808Z,73179
2017-04-17T00:16:03.903Z,73181
2017-04-17T00:16:13.709Z,73182
2017-04-17T00:16:23.801Z,73186
2017-04-17T00:16:33.894Z,73193
2017-04-17T00:16:44.113Z,73198
2017-04-17T00:16:54.210Z,73204
2017-04-17T00:17:04.017Z,73203
2017-04-17T00:17:14.102Z,73203
2017-04-17T00:17:24.188Z,73201
2017-04-17T00:17:33.990Z,73204
2017-04-17T00:17:44.121Z,73204
2017-04-17T00:17:54.210Z,73198
2017-04-17T00:18:04.304Z,73194
2017-04-17T00:18:14.393Z,73192
2017-04-17T00:18:24.483Z,73193
2017-04-17T00:18:34.286Z,73193
2017-04-17T00:18:44.387Z,73195
2017-04-17T00:18:54.476Z,73198
2017-04-17T00:19:04.569Z,73196
2017-04-17T00:19:14.659Z,73200
2017-04-17T00:19:24.751Z,73196
2017-04-17T00:19:34.838Z,73197
2017-04-17T00:19:44.921Z,73197
2017-04-17T00:19:55.015Z,73196
2017-04-17T00:20:05.108Z,73197
2017-04-17T00:20:15.199Z,73195
2017-04-17T00:20:25.001Z,73198
2017-04-17T00:20:34.803Z,73200
2017-04-17T00:20:44.890Z,73203
2017-04-17T00:20:55.001Z,73202
2017-04-17T00:21:05.085Z,73204
2017-04-17T00:21:15.356Z,73208
2017-04-17T00:21:25.450Z,73210
2017-04-17T00:21:35.538Z,73210
2017-04-17T00:21:45.631Z,73203
2017-04-17T00:21:55.720Z,73193
2017-04-17T00:22:05.523Z,73183
2017-04-17T00:22:15.703Z,73183
2017-04-17T00:22:25.795Z,73186
2017-04-17T00:22:35.878Z,73182
2017-04-17T00:22:45.966Z,73182
2017-04-17T00:22:56.057Z,73183
2017-04-17T00:23:06.169Z,73187
2017-04-17T00:23:16.255Z,73192
2017-04-17T00:23:26.357Z,73184
2017-04-17T00:23:36.446Z,73187
2017-04-17T00:23:45.967Z,73183
2017-04-17T00:23:56.060Z,73181
2017-04-17T00:24:06.147Z,73184
2017-04-17T00:24:15.951Z,73181
2017-04-17T00:24:26.048Z,73183
2017-04-17T00:24:35.870Z,73187
2017-04-17T00:24:45.957Z,73187
2017-04-17T00:24:55.762Z,73182
2017-04-17T00:25:05.565Z,73181
2017-04-17T00:25:15.659Z,73196
2017-04-17T00:25:25.749Z,73195
2017-04-17T00:25:35.838Z,73194
2017-04-17T00:25:45.928Z,73191
2017-04-17T00:25:56.019Z,73184
2017-04-17T00:26:06.103Z,73187
2017-04-17T00:26:15.906Z,73185
2017-04-17T00:26:25.999Z,73187
2017-04-17T00:26:36.096Z,73192
2017-04-17T00:26:46.205Z,73192
2017-04-17T00:26:56.000Z,73189
2017-04-17T00:27:06.095Z,73187
2017-04-17T00:27:15.895Z,73191
2017-04-17T00:27:25.984Z,73190
2017-04-17T00:27:36.070Z,73194
2017-04-17T00:27:46.161Z,73196
2017-04-17T00:27:55.960Z,73195
2017-04-17T00:28:06.048Z,73195
2017-04-17T00:28:16.143Z,73190
2017-04-17T00:28:26.233Z,73192
2017-04-17T00:28:36.337Z,73187
2017-04-17T00:28:46.426Z,73178
2017-04-17T00:28:56.518Z,73174
2017-04-17T00:29:06.846Z,73170
2017-04-17T00:29:16.362Z,73173
2017-04-17T00:29:26.454Z,73173
2017-04-17T00:29:36.575Z,73181
2017-04-17T00:29:46.671Z,73186
2017-04-17T00:29:56.760Z,73177
2017-04-17T00:30:06.854Z,73178
2017-04-17T00:30:17.069Z,73181
2017-04-17T00:30:26.873Z,73180
2017-04-17T00:30:36.956Z,73182
2017-04-17T00:30:47.052Z,73177
2017-04-17T00:30:56.849Z,73174
2017-04-17T00:31:06.940Z,73177
2017-04-17T00:31:17.025Z,73185
2017-04-17T00:31:26.826Z,73190
2017-04-17T00:31:36.913Z,73183
2017-04-17T00:31:47.026Z,73167
2017-04-17T00:31:57.118Z,73171
2017-04-17T00:32:07.209Z,73182
2017-04-17T00:32:17.005Z,73186
2017-04-17T00:32:27.299Z,73187
2017-04-17T00:32:37.396Z,73182
2017-04-17T00:32:47.488Z,73182
2017-04-17T00:32:57.576Z,73177
2017-04-17T00:33:07.671Z,73179
2017-04-17T00:33:17.479Z,73181
2017-04-17T00:33:27.571Z,73184
2017-04-17T00:33:37.677Z,73178
2017-04-17T00:33:47.767Z,73181
2017-04-17T00:33:57.860Z,73177
2017-04-17T00:34:07.943Z,73184
2017-04-17T00:34:17.463Z,73186
2017-04-17T00:34:27.558Z,73184
2017-04-17T00:34:37.983Z,73183
2017-04-17T00:34:48.077Z,73181
2017-04-17T00:34:58.169Z,73187
2017-04-17T00:35:07.678Z,73182
2017-04-17T00:35:17.488Z,73184
2017-04-17T00:35:27.574Z,73191
2017-04-17T00:35:37.664Z,73194
2017-04-17T00:35:47.760Z,73200
2017-04-17T00:35:57.801Z,73191
2017-04-17T00:36:07.601Z,73188
2017-04-17T00:36:17.401Z,73193
2017-04-17T00:36:27.489Z,73199
2017-04-17T00:36:37.580Z,73209
2017-04-17T00:36:47.667Z,73207
2017-04-17T00:36:57.472Z,73206
2017-04-17T00:37:07.269Z,73199
2017-04-17T00:37:17.356Z,73190
2017-04-17T00:37:27.439Z,73187
2017-04-17T00:37:37.527Z,73192
2017-04-17T00:37:47.617Z,73190
2017-04-17T00:37:57.710Z,73183
2017-04-17T00:38:07.828Z,73184
2017-04-17T00:38:17.637Z,73186
2017-04-17T00:38:27.443Z,73176
2017-04-17T00:38:37.535Z,73174
2017-04-17T00:38:47.626Z,73177
2017-04-17T00:38:57.722Z,73177
2017-04-17T00:39:07.827Z,73175
2017-04-17T00:39:18.084Z,73175
2017-04-17T00:39:28.177Z,73172
2017-04-17T00:39:37.980Z,73174
2017-04-17T00:39:48.077Z,73179
2017-04-17T00:39:58.167Z,73177
2017-04-17T00:40:08.257Z,73171
2017-04-17T00:40:17.770Z,73171
2017-04-17T00:40:27.572Z,73175
2017-04-17T00:40:37.369Z,73169
2017-04-17T00:40:47.457Z,73166
2017-04-17T00:40:57.542Z,73174
2017-04-17T00:41:07.632Z,73170
2017-04-17T00:41:17.720Z,73161
2017-04-17T00:41:27.816Z,73165
2017-04-17T00:41:37.903Z,73171
2017-04-17T00:41:47.992Z,73163
2017-04-17T00:41:58.117Z,73155
2017-04-17T00:42:08.198Z,73156
2017-04-17T00:42:18.286Z,73169
2017-04-17T00:42:28.372Z,73168
2017-04-17T00:42:38.461Z,73165
2017-04-17T00:42:48.583Z,73166
2017-04-17T00:42:58.673Z,73175
2017-04-17T00:43:08.770Z,73176
2017-04-17T00:43:18.571Z,73176
2017-04-17T00:43:28.665Z,73174
2017-04-17T00:43:38.472Z,73176
2017-04-17T00:43:48.282Z,73179
2017-04-17T00:43:58.369Z,73173
2017-04-17T00:44:08.462Z,73178
2017-04-17T00:44:18.553Z,73180
2017-04-17T00:44:28.643Z,73175
2017-04-17T00:44:38.735Z,73170
2017-04-17T00:44:48.534Z,73169
2017-04-17T00:44:58.623Z,73166
2017-04-17T00:45:08.424Z,73169
2017-04-17T00:45:18.226Z,73166
2017-04-17T00:45:28.312Z,73170
2017-04-17T00:45:38.115Z,73171
2017-04-17T00:45:48.203Z,73166
2017-04-17T00:45:58.516Z,73164
2017-04-17T00:46:08.605Z,73171
2017-04-17T00:46:18.692Z,73169
2017-04-17T00:46:28.783Z,73169
2017-04-17T00:46:38.584Z,73171
2017-04-17T00:46:48.667Z,73173
2017-04-17T00:46:58.765Z,73171
2017-04-17T00:47:08.866Z,73171
2017-04-17T00:47:18.958Z,73174
2017-04-17T00:47:29.054Z,73175
2017-04-17T00:47:39.147Z,73171
2017-04-17T00:47:49.255Z,73176
2017-04-17T00:47:59.059Z,73186
2017-04-17T00:48:09.219Z,73182
2017-04-17T00:48:19.308Z,73177
2017-04-17T00:48:29.398Z,73175
2017-04-17T00:48:39.489Z,73172
2017-04-17T00:48:49.578Z,73173
2017-04-17T00:48:59.379Z,73175
2017-04-17T00:49:09.477Z,73183
2017-04-17T00:49:19.293Z,73177
2017-04-17T00:49:29.383Z,73182
2017-04-17T00:49:39.478Z,73184
2017-04-17T00:49:49.565Z,73183
2017-04-17T00:49:59.656Z,73179
2017-04-17T00:50:09.744Z,73178
2017-04-17T00:50:19.542Z,73179
2017-04-17T00:50:29.375Z,73178
2017-04-17T00:50:39.468Z,73176
2017-04-17T00:50:49.552Z,73172
2017-04-17T00:50:59.639Z,73170
2017-04-17T00:51:09.439Z,73174
2017-04-17T00:51:19.239Z,73174
2017-04-17T00:51:29.326Z,73173
2017-04-17T00:51:39.418Z,73179
2017-04-17T00:51:49.531Z,73183
2017-04-17T00:51:59.623Z,73185
2017-04-17T00:52:09.717Z,73179
2017-04-17T00:52:19.804Z,73181
2017-04-17T00:52:29.892Z,73179
2017-04-17T00:52:40.267Z,73175
2017-04-17T00:52:50.364Z,73179
2017-04-17T00:53:00.453Z,73178
2017-04-17T00:53:10.251Z,73178
2017-04-17T00:53:20.346Z,73184
2017-04-17T00:53:30.431Z,73184
2017-04-17T00:53:40.233Z,73182
2017-04-17T00:53:51.062Z,73182
2017-04-17T00:54:01.151Z,73182
2017-04-17T00:54:10.952Z,73185
2017-04-17T00:54:21.048Z,73182
2017-04-17T00:54:31.143Z,73180
2017-04-17T00:54:41.233Z,73182
2017-04-17T00:54:51.328Z,73175
2017-04-17T00:55:01.508Z,73168
2017-04-17T00:55:11.597Z,73167
2017-04-17T00:55:21.683Z,73166
2017-04-17T00:55:31.771Z,73173
2017-04-17T00:55:41.858Z,73177
2017-04-17T00:55:51.952Z,73175
2017-04-17T00:56:02.040Z,73179
2017-04-17T00:56:11.846Z,73178
2017-04-17T00:56:21.653Z,73175
2017-04-17T00:56:31.739Z,73170
2017-04-17T00:56:41.825Z,73167
2017-04-17T00:56:51.915Z,73166
2017-04-17T00:57:01.714Z,73164
2017-04-17T00:57:11.806Z,73163
2017-04-17T00:57:21.894Z,73159
2017-04-17T00:57:31.984Z,73160
2017-04-17T00:57:42.075Z,73163
2017-04-17T00:57:52.169Z,73165
2017-04-17T00:58:02.272Z,73162
2017-04-17T00:58:12.366Z,73160
2017-04-17T00:58:22.679Z,73162
2017-04-17T00:58:32.773Z,73160
2017-04-17T00:58:42.864Z,73165
2017-04-17T00:58:52.956Z,73170
2017-04-17T00:59:03.043Z,73171
2017-04-17T00:59:13.132Z,73182
2017-04-17T00:59:22.945Z,73185
2017-04-17T00:59:33.042Z,73182
2017-04-17T00:59:43.136Z,73181
2017-04-17T00:59:52.938Z,73181
2017-04-17T01:00:03.030Z,73180
2017-04-17T01:00:13.119Z,73180
2017-04-17T01:00:23.205Z,73182
2017-04-17T01:00:33.290Z,73180
2017-04-17T01:00:43.488Z,73180
2017-04-17T01:00:53.293Z,73174
2017-04-17T01:01:03.102Z,73171
2017-04-17T01:01:13.189Z,73173
2017-04-17T01:01:23.275Z,73167
2017-04-17T01:01:33.078Z,73159
2017-04-17T01:01:43.324Z,73163
2017-04-17T01:01:53.281Z,73167
2017-04-17T01:02:03.372Z,73170
2017-04-17T01:02:13.171Z,73175
2017-04-17T01:02:23.264Z,73177
2017-04-17T01:02:33.361Z,73175
2017-04-17T01:02:43.449Z,73177
2017-04-17T01:02:53.547Z,73173
2017-04-17T01:03:03.635Z,73175
2017-04-17T01:03:13.438Z,73170
2017-04-17T01:03:23.238Z,73173
2017-04-17T01:03:33.332Z,73168
2017-04-17T01:03:43.426Z,73167
2017-04-17T01:03:53.236Z,73169
2017-04-17T01:04:03.332Z,73168
2017-04-17T01:04:13.427Z,73176
2017-04-17T01:04:23.239Z,73179
2017-04-17T01:04:33.327Z,73174
2017-04-17T01:04:43.415Z,73173
2017-04-17T01:04:53.215Z,73184
2017-04-17T01:05:03.020Z,73183
2017-04-17T01:05:12.542Z,73180
2017-04-17T01:05:22.636Z,73189
2017-04-17T01:05:32.729Z,73184
2017-04-17T01:05:42.821Z,73172
2017-04-17T01:05:52.918Z,73171
2017-04-17T01:06:03.006Z,73173
2017-04-17T01:06:12.829Z,73176
2017-04-17T01:06:22.839Z,73169
2017-04-17T01:06:32.929Z,73158
2017-04-17T01:06:42.733Z,73161
2017-04-17T01:06:52.829Z,73161
2017-04-17T01:07:02.624Z,73161
2017-04-17T01:07:12.723Z,73158
2017-04-17T01:07:22.907Z,73164
2017-04-17T01:07:32.998Z,73166
2017-04-17T01:07:42.804Z,73161
2017-04-17T01:07:52.902Z,73161
2017-04-17T01:08:02.991Z,73174
2017-04-17T01:08:12.794Z,73172
2017-04-17T01:08:22.894Z,73177
2017-04-17T01:08:33.030Z,73171
2017-04-17T01:08:42.555Z,73168
2017-04-17T01:08:52.645Z,73168
2017-04-17T01:09:02.738Z,73168
2017-04-17T01:09:12.835Z,73170
2017-04-17T01:09:22.930Z,73173
2017-04-17T01:09:32.734Z,73171
2017-04-17T01:09:42.587Z,73164
2017-04-17T01:09:52.673Z,73168
2017-04-17T01:10:02.789Z,73168
2017-04-17T01:10:12.876Z,73169
2017-04-17T01:10:22.673Z,73161
2017-04-17T01:10:32.760Z,73169
2017-04-17T01:10:42.564Z,73165
2017-04-17T01:10:52.801Z,73167
2017-04-17T01:11:02.888Z,73166
2017-04-17T01:11:12.977Z,73165
2017-04-17T01:11:23.063Z,73164
2017-04-17T01:11:33.153Z,73167
2017-04-17T01:11:43.238Z,73174
2017-04-17T01:11:53.043Z,73177
2017-04-17T01:12:03.131Z,73179
2017-04-17T01:12:13.225Z,73171
2017-04-17T01:12:23.309Z,73165
2017-04-17T01:12:33.405Z,73172
2017-04-17T01:12:42.933Z,73174
2017-04-17T01:12:53.025Z,73174
2017-04-17T01:13:03.309Z,73170
2017-04-17T01:13:13.112Z,73174
2017-04-17T01:13:23.206Z,73174
2017-04-17T01:13:33.304Z,73165
2017-04-17T01:13:43.394Z,73160
2017-04-17T01:13:53.486Z,73154
2017-04-17T01:14:03.585Z,73155
2017-04-17T01:14:13.416Z,73164
2017-04-17T01:14:23.508Z,73163
2017-04-17T01:14:33.591Z,73166
2017-04-17T01:14:43.683Z,73170
2017-04-17T01:14:53.776Z,73174
2017-04-17T01:15:03.864Z,73171
2017-04-17T01:15:13.668Z,73168
2017-04-17T01:15:23.754Z,73177
2017-04-17T01:15:33.842Z,73173
2017-04-17T01:15:43.932Z,73170
2017-04-17T01:15:53.746Z,73163
2017-04-17T01:16:03.842Z,73169
2017-04-17T01:16:13.639Z,73172
2017-04-17T01:16:23.798Z,73176
2017-04-17T01:16:33.892Z,73176
2017-04-17T01:16:43.987Z,73173
2017-04-17T01:16:54.074Z,73172
2017-04-17T01:17:03.872Z,73169
2017-04-17T01:17:13.389Z,73165
2017-04-17T01:17:23.474Z,73158
2017-04-17T01:17:33.597Z,73158
2017-04-17T01:17:43.713Z,73162
2017-04-17T01:17:53.804Z,73160
2017-04-17T01:18:03.897Z,73166
2017-04-17T01:18:13.715Z,73162
2017-04-17T01:18:23.803Z,73164
2017-04-17T01:18:33.893Z,73165
2017-04-17T01:18:44.104Z,73164
2017-04-17T01:18:54.192Z,73170
2017-04-17T01:19:04.282Z,73171
2017-04-17T01:19:14.369Z,73171
2017-04-17T01:19:24.175Z,73173
2017-04-17T01:19:34.265Z,73173
2017-04-17T01:19:44.639Z,73177
2017-04-17T01:19:54.723Z,73177
2017-04-17T01:20:04.820Z,73174
2017-04-17T01:20:14.622Z,73175
2017-04-17T01:20:24.711Z,73173
2017-04-17T01:20:34.801Z,73162
2017-04-17T01:20:44.891Z,73146
2017-04-17T01:20:54.748Z,73143
2017-04-17T01:21:04.838Z,73149
2017-04-17T01:21:14.645Z,73155
2017-04-17T01:21:24.736Z,73161
2017-04-17T01:21:34.835Z,73171
2017-04-17T01:21:44.925Z,73164
2017-04-17T01:21:55.011Z,73161
2017-04-17T01:22:05.189Z,73157
2017-04-17T01:22:15.274Z,73152
2017-04-17T01:22:25.374Z,73155
2017-04-17T01:22:35.460Z,73153
2017-04-17T01:22:45.546Z,73153
2017-04-17T01:22:55.636Z,73154
2017-04-17T01:23:05.733Z,73153
2017-04-17T01:23:15.965Z,73155
2017-04-17T01:23:25.771Z,73153
2017-04-17T01:23:35.861Z,73159
2017-04-17T01:23:45.961Z,73163
2017-04-17T01:23:56.047Z,73161
2017-04-17T01:24:05.845Z,73162
2017-04-17T01:24:15.664Z,73158
2017-04-17T01:24:25.778Z,73155
2017-04-17T01:24:35.871Z,73159
2017-04-17T01:24:45.960Z,73161
2017-04-17T01:24:56.049Z,73163
2017-04-17T01:25:05.854Z,73171
2017-04-17T01:25:15.649Z,73173
2017-04-17T01:25:25.548Z,73164
2017-04-17T01:25:35.673Z,73160
2017-04-17T01:25:45.763Z,73163
2017-04-17T01:25:55.853Z,73155
2017-04-17T01:26:05.947Z,73155
2017-04-17T01:26:15.464Z,73160
2017-04-17T01:26:25.596Z,73157
2017-04-17T01:26:35.686Z,73163
2017-04-17T01:26:45.772Z,73161
2017-04-17T01:26:55.569Z,73161
2017-04-17T01:27:05.655Z,73165
2017-04-17T01:27:15.451Z,73167
2017-04-17T01:27:25.541Z,73166
2017-04-17T01:27:35.727Z,73166
2017-04-17T01:27:45.824Z,73158
2017-04-17T01:27:55.624Z,73150
2017-04-17T01:28:05.731Z,73152
2017-04-17T01:28:15.823Z,73152
2017-04-17T01:28:25.631Z,73162
2017-04-17T01:28:35.436Z,73168
2017-04-17T01:28:45.535Z,73168
2017-04-17T01:28:55.624Z,73169
2017-04-17T01:29:05.716Z,73174
2017-04-17T01:29:15.511Z,73158
2017-04-17T01:29:25.314Z,73159
2017-04-17T01:29:35.121Z,73129
2017-04-17T01:29:45.221Z,73132
2017-04-17T01:29:55.519Z,73143
2017-04-17T01:30:05.327Z,73143
2017-04-17T01:30:15.412Z,73146
2017-04-17T01:30:25.223Z,73148
2017-04-17T01:30:35.319Z,73148
2017-04-17T01:30:45.404Z,73148
2017-04-17T01:30:55.493Z,73151
2017-04-17T01:31:05.293Z,73154
2017-04-17T01:31:15.387Z,73156
2017-04-17T01:31:25.481Z,73155
2017-04-17T01:31:35.573Z,73159
2017-04-17T01:31:45.686Z,73156
2017-04-17T01:31:55.485Z,73160
2017-04-17T01:32:05.423Z,73157
2017-04-17T01:32:14.464Z,73154
2017-04-17T01:32:24.551Z,73153
2017-04-17T01:32:34.646Z,73150
2017-04-17T01:32:44.737Z,73153
2017-04-17T01:32:54.822Z,73150
2017-04-17T01:33:04.910Z,73151
2017-04-17T01:33:14.718Z,73152
2017-04-17T01:33:24.810Z,73155
2017-04-17T01:33:34.942Z,73155
2017-04-17T01:33:45.033Z,73153
2017-04-17T01:33:55.122Z,73155
2017-04-17T01:34:04.921Z,73165
2017-04-17T01:34:15.020Z,73166
2017-04-17T01:34:25.113Z,73164
2017-04-17T01:34:35.201Z,73165
2017-04-17T01:34:45.002Z,73166
2017-04-17T01:34:55.091Z,73168
2017-04-17T01:35:05.182Z,73168
2017-04-17T01:35:14.999Z,73165
2017-04-17T01:35:25.089Z,73162
2017-04-17T01:35:35.174Z,73163
2017-04-17T01:35:44.976Z,73161
2017-04-17T01:35:55.065Z,73158
2017-04-17T01:36:04.872Z,73160
2017-04-17T01:36:14.957Z,73159
2017-04-17T01:36:25.048Z,73161
2017-04-17T01:36:35.292Z,73158
2017-04-17T01:36:45.280Z,73158
2017-04-17T01:36:55.089Z,73164
2017-04-17T01:37:05.179Z,73163
2017-04-17T01:37:14.980Z,73164
2017-04-17T01:37:25.071Z,73170
2017-04-17T01:37:35.166Z,73171
2017-04-17T01:37:45.003Z,73161
2017-04-17T01:37:54.814Z,73159
2017-04-17T01:38:04.904Z,73156
2017-04-17T01:38:14.994Z,73157
2017-04-17T01:38:25.089Z,73153
2017-04-17T01:38:34.608Z,73152
2017-04-17T01:38:44.409Z,73158
2017-04-17T01:38:54.400Z,73157
2017-04-17T01:39:04.494Z,73165
2017-04-17T01:39:14.587Z,73162
2017-04-17T01:39:24.671Z,73158
2017-04-17T01:39:34.475Z,73154
2017-04-17T01:39:44.573Z,73156
2017-04-17T01:39:54.854Z,73158
2017-04-17T01:40:04.723Z,73168
2017-04-17T01:40:14.828Z,73171
2017-04-17T01:40:24.922Z,73173
2017-04-17T01:40:35.007Z,73173
2017-04-17T01:40:45.101Z,73168
2017-04-17T01:40:55.187Z,73160
2017-04-17T01:41:05.269Z,73162
2017-04-17T01:41:15.211Z,73159
2017-04-17T01:41:25.300Z,73152
2017-04-17T01:41:35.389Z,73151
2017-04-17T01:41:45.482Z,73152
2017-04-17T01:41:55.567Z,73154
2017-04-17T01:42:05.369Z,73153
2017-04-17T01:42:15.462Z,73156
2017-04-17T01:42:25.558Z,73150
2017-04-17T01:42:35.643Z,73137
2017-04-17T01:42:45.735Z,73147
2017-04-17T01:42:55.824Z,73154
2017-04-17T01:43:05.918Z,73150
2017-04-17T01:43:15.721Z,73160
2017-04-17T01:43:26.019Z,73166
2017-04-17T01:43:36.172Z,73165
2017-04-17T01:43:46.271Z,73167
2017-04-17T01:43:56.379Z,73173
2017-04-17T01:44:06.471Z,73173
2017-04-17T01:44:16.571Z,73175
2017-04-17T01:44:26.803Z,73171
2017-04-17T01:44:36.952Z,73161
2017-04-17T01:44:47.038Z,73166
2017-04-17T01:44:56.837Z,73163
2017-04-17T01:45:06.933Z,73165
2017-04-17T01:45:16.738Z,73162
2017-04-17T01:45:26.825Z,73165
2017-04-17T01:45:36.918Z,73164
2017-04-17T01:45:47.016Z,73171
2017-04-17T01:45:57.104Z,73170
2017-04-17T01:46:07.194Z,73168
2017-04-17T01:46:17.283Z,73165
2017-04-17T01:46:27.379Z,73165
2017-04-17T01:46:37.467Z,73165
2017-04-17T01:46:47.648Z,73168
2017-04-17T01:46:57.742Z,73165
2017-04-17T01:47:07.834Z,73165
2017-04-17T01:47:17.927Z,73170
2017-04-17T01:47:28.027Z,73172
2017-04-17T01:47:38.115Z,73174
2017-04-17T01:47:47.921Z,73170
2017-04-17T01:47:58.013Z,73168
2017-04-17T01:48:08.104Z,73159
2017-04-17T01:48:17.906Z,73154
2017-04-17T01:48:27.995Z,73150
2017-04-17T01:48:37.801Z,73151
2017-04-17T01:48:47.893Z,73150
2017-04-17T01:48:58.145Z,73156
2017-04-17T01:49:08.237Z,73148
2017-04-17T01:49:18.049Z,73155
2017-04-17T01:49:28.147Z,73154
2017-04-17T01:49:38.237Z,73146
2017-04-17T01:49:48.038Z,73144
2017-04-17T01:49:58.130Z,73150
2017-04-17T01:50:07.933Z,73154
2017-04-17T01:50:17.731Z,73156
2017-04-17T01:50:27.818Z,73156
2017-04-17T01:50:37.903Z,73150
2017-04-17T01:50:47.991Z,73152
2017-04-17T01:50:57.784Z,73152
2017-04-17T01:51:07.886Z,73153
2017-04-17T01:51:17.684Z,73155
2017-04-17T01:51:27.773Z,73154
2017-04-17T01:51:37.863Z,73153
2017-04-17T01:51:47.948Z,73159
2017-04-17T01:51:57.742Z,73160
2017-04-17T01:52:07.831Z,73162
2017-04-17T01:52:17.925Z,73159
2017-04-17T01:52:28.018Z,73159
2017-04-17T01:52:37.818Z,73150
2017-04-17T01:52:47.622Z,73149
2017-04-17T01:52:57.716Z,73145
2017-04-17T01:53:07.804Z,73145
2017-04-17T01:53:17.620Z,73147
2017-04-17T01:53:27.703Z,73146
2017-04-17T01:53:37.801Z,73147
2017-04-17T01:53:47.890Z,73131
2017-04-17T01:53:57.983Z,73137
2017-04-17T01:54:08.075Z,73136
2017-04-17T01:54:17.585Z,73141
2017-04-17T01:54:27.678Z,73154
2017-04-17T01:54:37.771Z,73156
2017-04-17T01:54:47.858Z,73157
2017-04-17T01:54:57.951Z,73157
2017-04-17T01:55:08.047Z,73160
2017-04-17T01:55:17.556Z,73159
2017-04-17T01:55:27.649Z,73159
2017-04-17T01:55:37.731Z,73157
2017-04-17T01:55:47.816Z,73165
2017-04-17T01:55:57.328Z,73163
2017-04-17T01:56:07.416Z,73160
2017-04-17T01:56:17.221Z,73159
2017-04-17T01:56:27.308Z,73156
2017-04-17T01:56:37.397Z,73158
2017-04-17T01:56:47.490Z,73158
2017-04-17T01:56:57.649Z,73159
2017-04-17T01:57:07.448Z,73155
2017-04-17T01:57:17.573Z,73152
2017-04-17T01:57:27.671Z,73157
2017-04-17T01:57:37.757Z,73154
2017-04-17T01:57:47.848Z,73159
2017-04-17T01:57:57.943Z,73155
2017-04-17T01:58:07.741Z,73159
2017-04-17T01:58:17.266Z,73157
2017-04-17T01:58:27.356Z,73160
2017-04-17T01:58:37.451Z,73162
2017-04-17T01:58:47.255Z,73165
2017-04-17T01:58:57.343Z,73160
2017-04-17T01:59:07.220Z,73164
2017-04-17T01:59:17.019Z,73167
2017-04-17T01:59:27.108Z,73166
2017-04-17T01:59:37.191Z,73166
2017-04-17T01:59:47.272Z,73166
2017-04-17T01:59:57.362Z,73163
2017-04-17T02:00:07.456Z,73166
2017-04-17T02:00:17.576Z,73167
2017-04-17T02:00:27.661Z,73164
2017-04-17T02:00:37.782Z,73165
2017-04-17T02:00:47.582Z,73161
2017-04-17T02:00:57.384Z,73166
2017-04-17T02:01:07.468Z,73169
2017-04-17T02:01:17.270Z,73169
2017-04-17T02:01:27.070Z,73166
2017-04-17T02:01:37.160Z,73166
2017-04-17T02:01:47.247Z,73169
2017-04-17T02:01:57.334Z,73161
2017-04-17T02:02:07.424Z,73158
2017-04-17T02:02:17.229Z,73147
2017-04-17T02:02:27.065Z,73150
2017-04-17T02:02:37.258Z,73146
2017-04-17T02:02:47.347Z,73152
2017-04-17T02:02:57.147Z,73155
2017-04-17T02:03:06.956Z,73150
2017-04-17T02:03:17.048Z,73149
2017-04-17T02:03:26.851Z,73157
2017-04-17T02:03:36.945Z,73158
2017-04-17T02:03:47.034Z,73161
2017-04-17T02:03:57.122Z,73157
2017-04-17T02:04:06.652Z,73151
2017-04-17T02:04:16.740Z,73139
2017-04-17T02:04:26.835Z,73149
2017-04-17T02:04:36.927Z,73160
2017-04-17T02:04:46.724Z,73165
2017-04-17T02:04:56.813Z,73167
2017-04-17T02:05:06.899Z,73156
2017-04-17T02:05:16.993Z,73151
2017-04-17T02:05:27.080Z,73169
2017-04-17T02:05:37.166Z,73153
2017-04-17T02:05:47.253Z,73154
2017-04-17T02:05:57.434Z,73157
2017-04-17T02:06:07.521Z,73160
2017-04-17T02:06:17.608Z,73159
2017-04-17T02:06:27.699Z,73166
2017-04-17T02:06:37.813Z,73168
2017-04-17T02:06:47.615Z,73169
2017-04-17T02:06:57.709Z,73166
2017-04-17T02:07:07.798Z,73171
2017-04-17T02:07:17.890Z,73165
2017-04-17T02:07:27.983Z,73163
2017-04-17T02:07:37.798Z,73162
2017-04-17T02:07:47.887Z,73163
2017-04-17T02:07:57.982Z,73161
2017-04-17T02:08:08.187Z,73153
2017-04-17T02:08:18.280Z,73149
2017-04-17T02:08:28.378Z,73157
2017-04-17T02:08:38.471Z,73153
2017-04-17T02:08:48.565Z,73152
2017-04-17T02:08:58.652Z,73149